Time;durP1;ratioP1;P1;durP2;ratioP2;P2;SDS_P1;SDS_P2;PMS_P1;PMS_P2;Temp;Humidity;BMP_temperature;BMP_pressure;BME280_temperature;BME280_humidity;BME280_pressure;Samples;Min_cycle;Max_cycle;Signal;HPM_P1;HPM_P2
2023/10/31 00:01:34;;;;;;;8.23;4.47;;;13.60;1.00;;;;;;8327991;28;20603;-66
2023/10/31 00:05:34;;;;;;;5.67;4.07;;;13.50;1.00;;;;;;8330768;28;20210;-66
2023/10/31 00:09:35;;;;;;;6.33;4.80;;;13.50;25.10;;;;;;8334336;28;20182;-65
2023/10/31 00:13:36;;;;;;;6.97;4.83;;;13.50;99.90;;;;;;8329780;28;20193;-64
2023/10/31 00:17:37;;;;;;;7.80;5.17;;;13.50;99.90;;;;;;8329141;28;20201;-64
2023/10/31 00:21:38;;;;;;;7.00;4.10;;;13.40;1.00;;;;;;8334665;28;20225;-65
2023/10/31 00:25:38;;;;;;;8.53;4.37;;;13.50;1.00;;;;;;8328107;28;20222;-66
2023/10/31 00:29:39;;;;;;;5.13;3.70;;;13.50;99.90;;;;;;8332820;28;20341;-65
2023/10/31 00:33:40;;;;;;;10.10;3.77;;;13.50;17.90;;;;;;8329814;28;20202;-65
2023/10/31 00:37:41;;;;;;;5.00;3.23;;;13.60;1.00;;;;;;8329805;28;20189;-66
2023/10/31 00:41:46;;;;;;;5.30;3.60;;;13.60;1.00;;;;;;8326875;28;20186;-65
2023/10/31 00:45:47;;;;;;;7.33;3.53;;;13.70;99.90;;;;;;8327563;28;20214;-66
2023/10/31 00:49:47;;;;;;;5.00;3.30;;;13.80;1.00;;;;;;8331101;28;20202;-63
2023/10/31 00:53:48;;;;;;;5.47;3.70;;;13.80;99.90;;;;;;8327962;28;20204;-66
2023/10/31 00:57:49;;;;;;;6.70;3.30;;;13.90;99.90;;;;;;8332135;28;20202;-65
2023/10/31 01:01:50;;;;;;;5.20;3.17;;;13.90;32.40;;;;;;8326123;28;20229;-66
2023/10/31 01:05:51;;;;;;;3.63;2.77;;;14.00;1.00;;;;;;8330915;28;20214;-67
2023/10/31 01:09:51;;;;;;;6.10;2.93;;;14.00;1.00;;;;;;8331089;28;20190;-67
2023/10/31 01:13:53;;;;;;;3.87;2.73;;;14.00;1.00;;;;;;8333870;28;20222;-65
2023/10/31 01:17:54;;;;;;;4.93;3.37;;;14.00;1.00;;;;;;8322477;28;20194;-64
2023/10/31 01:21:55;;;;;;;4.60;2.87;;;14.00;1.00;;;;;;8326246;28;20204;-66
2023/10/31 01:25:56;;;;;;;5.77;3.03;;;14.00;1.00;;;;;;8327266;28;20248;-66
2023/10/31 01:29:56;;;;;;;4.97;2.87;;;14.00;99.90;;;;;;8325721;28;20186;-65
2023/10/31 01:33:57;;;;;;;4.43;2.90;;;13.90;99.90;;;;;;8325859;28;20181;-66
2023/10/31 01:37:58;;;;;;;5.07;2.73;;;13.90;99.90;;;;;;8328785;28;20251;-65
2023/10/31 01:41:59;;;;;;;7.43;4.00;;;13.90;99.90;;;;;;8333809;28;20181;-65
2023/10/31 01:46:00;;;;;;;6.43;3.30;;;13.90;49.40;;;;;;8326526;28;20292;-65
2023/10/31 01:50:01;;;;;;;7.87;3.63;;;13.80;1.00;;;;;;8329766;28;20204;-67
2023/10/31 01:54:04;;;;;;;3.90;3.00;;;13.80;99.90;;;;;;8327759;28;20194;-60
2023/10/31 01:58:05;;;;;;;5.30;3.73;;;13.80;99.90;;;;;;8324558;28;20186;-61
2023/10/31 02:02:07;;;;;;;5.63;4.13;;;13.80;99.90;;;;;;8342464;28;20444;-59
2023/10/31 02:06:08;;;;;;;6.60;3.90;;;13.70;99.90;;;;;;8329084;28;20202;-62
2023/10/31 02:10:09;;;;;;;7.10;4.20;;;13.70;99.90;;;;;;8356731;28;20192;-61
2023/10/31 02:14:10;;;;;;;8.77;4.60;;;13.70;99.90;;;;;;8363233;28;20277;-61
2023/10/31 02:18:12;;;;;;;6.83;4.50;;;13.60;99.90;;;;;;8329275;28;20193;-60
2023/10/31 02:22:13;;;;;;;8.60;4.60;;;13.60;99.90;;;;;;8357641;28;20193;-64
2023/10/31 02:26:14;;;;;;;7.03;4.80;;;13.60;99.90;;;;;;8326058;28;20255;-62
2023/10/31 02:30:15;;;;;;;8.90;5.43;;;13.50;99.90;;;;;;8323406;28;20220;-60
2023/10/31 02:34:16;;;;;;;8.03;5.20;;;13.50;99.90;;;;;;8324568;28;20212;-60
2023/10/31 02:38:16;;;;;;;8.50;5.37;;;13.50;99.90;;;;;;8325230;28;20190;-63
2023/10/31 02:42:17;;;;;;;7.90;5.83;;;13.50;99.90;;;;;;8326340;28;20190;-62
2023/10/31 02:46:19;;;;;;;7.40;5.40;;;13.50;99.90;;;;;;8329704;28;20284;-63
2023/10/31 02:50:20;;;;;;;5.53;4.43;;;13.50;99.90;;;;;;8329957;28;20182;-61
2023/10/31 02:54:20;;;;;;;6.73;4.30;;;13.50;99.90;;;;;;8333586;28;20201;-60
2023/10/31 02:58:21;;;;;;;8.83;4.60;;;13.40;99.90;;;;;;8327270;28;20670;-61
2023/10/31 03:02:22;;;;;;;7.03;4.73;;;13.40;99.90;;;;;;8332202;28;20257;-62
2023/10/31 03:06:23;;;;;;;8.13;5.30;;;13.40;99.90;;;;;;8331919;28;20210;-62
2023/10/31 03:10:24;;;;;;;5.43;4.53;;;13.40;99.90;;;;;;8330271;28;20237;-62
2023/10/31 03:14:26;;;;;;;6.77;4.90;;;13.40;99.90;;;;;;8331736;28;20491;-62
2023/10/31 03:18:26;;;;;;;8.47;5.17;;;13.40;99.90;;;;;;8362689;28;20244;-63
2023/10/31 03:22:27;;;;;;;9.73;5.53;;;13.40;99.90;;;;;;8330380;28;20198;-61
2023/10/31 03:26:28;;;;;;;5.20;4.70;;;13.50;99.90;;;;;;8329264;28;20304;-60
2023/10/31 03:30:29;;;;;;;6.27;4.47;;;13.50;99.90;;;;;;8328801;28;20187;-62
2023/10/31 03:34:33;;;;;;;6.73;4.37;;;13.50;99.90;;;;;;8326148;28;20623;-61
2023/10/31 03:38:34;;;;;;;4.47;3.67;;;13.50;99.90;;;;;;8332354;28;20193;-61
2023/10/31 03:42:35;;;;;;;5.20;4.23;;;13.50;99.90;;;;;;8329688;28;20276;-62
2023/10/31 03:46:36;;;;;;;6.87;3.30;;;13.50;99.90;;;;;;8328331;28;20211;-62
2023/10/31 03:50:37;;;;;;;4.93;3.40;;;13.40;99.90;;;;;;8329803;28;20186;-63
2023/10/31 03:54:37;;;;;;;7.93;4.43;;;13.40;99.90;;;;;;8328090;28;20206;-59
2023/10/31 03:58:42;;;;;;;5.33;3.67;;;13.40;99.90;;;;;;8329166;28;20228;-63
2023/10/31 04:02:43;;;;;;;7.10;4.73;;;13.40;99.90;;;;;;8329682;28;20193;-60
2023/10/31 04:06:44;;;;;;;5.77;4.77;;;13.40;99.90;;;;;;8330237;28;20214;-62
2023/10/31 04:10:45;;;;;;;5.80;4.03;;;13.30;99.90;;;;;;8318429;28;20194;-62
2023/10/31 04:14:45;;;;;;;7.37;4.13;;;13.30;99.90;;;;;;8331586;28;20190;-68
2023/10/31 04:18:46;;;;;;;4.93;4.03;;;13.30;99.90;;;;;;8339317;28;20211;-68
2023/10/31 04:22:47;;;;;;;7.47;4.53;;;13.30;99.90;;;;;;8333929;28;20186;-66
2023/10/31 04:26:48;;;;;;;4.67;4.00;;;13.40;99.90;;;;;;8337598;28;20220;-66
2023/10/31 04:30:48;;;;;;;7.20;3.97;;;13.40;99.90;;;;;;8333604;28;20642;-69
2023/10/31 04:34:49;;;;;;;6.73;3.90;;;13.40;99.90;;;;;;8341184;28;20182;-68
2023/10/31 04:38:50;;;;;;;5.93;4.80;;;13.40;99.90;;;;;;8335072;28;20193;-65
2023/10/31 04:42:51;;;;;;;8.60;6.70;;;13.50;99.90;;;;;;8333910;28;20183;-65
2023/10/31 04:46:51;;;;;;;11.43;8.90;;;13.50;99.90;;;;;;8332925;28;20209;-68
2023/10/31 04:50:52;;;;;;;10.67;8.73;;;13.50;99.90;;;;;;8332152;28;20454;-69
2023/10/31 04:54:53;;;;;;;9.13;7.40;;;13.50;99.90;;;;;;8328546;28;20197;-67
2023/10/31 04:59:00;;;;;;;10.67;6.40;;;13.50;99.90;;;;;;8326456;28;20236;-68
2023/10/31 05:03:02;;;;;;;5.93;5.33;;;13.50;99.90;;;;;;8329443;28;20264;-67
2023/10/31 05:07:03;;;;;;;7.50;6.60;;;13.50;99.90;;;;;;8357635;28;20193;-68
2023/10/31 05:11:04;;;;;;;10.30;6.67;;;13.40;99.90;;;;;;8328398;28;20335;-69
2023/10/31 05:15:05;;;;;;;9.87;6.13;;;13.40;99.90;;;;;;8334638;28;20210;-68
2023/10/31 05:19:07;;;;;;;9.77;6.60;;;13.40;99.90;;;;;;8332345;28;20233;-68
2023/10/31 05:23:09;;;;;;;11.07;6.13;;;13.30;99.90;;;;;;8332637;28;20183;-68
2023/10/31 05:27:10;;;;;;;7.83;6.00;;;13.30;99.90;;;;;;8332704;28;20186;-68
2023/10/31 05:31:12;;;;;;;6.97;6.23;;;13.30;99.90;;;;;;8329619;28;20224;-66
2023/10/31 05:35:13;;;;;;;8.00;6.60;;;13.30;99.90;;;;;;8335588;28;20189;-68
2023/10/31 05:39:15;;;;;;;11.23;7.17;;;13.30;99.90;;;;;;8360062;28;20212;-69
2023/10/31 05:43:16;;;;;;;11.50;6.63;;;13.30;99.90;;;;;;8330730;28;20261;-68
2023/10/31 05:47:16;;;;;;;8.83;6.90;;;13.20;99.90;;;;;;8329528;28;20182;-69
2023/10/31 05:51:18;;;;;;;9.10;7.20;;;13.20;99.90;;;;;;8330533;28;20683;-68
2023/10/31 05:55:20;;;;;;;11.43;6.70;;;13.20;99.90;;;;;;8332793;28;20205;-68
2023/10/31 05:59:21;;;;;;;8.67;6.37;;;13.10;99.90;;;;;;8331866;28;20550;-67
2023/10/31 06:03:23;;;;;;;8.13;6.20;;;13.20;99.90;;;;;;8326058;28;20214;-67
2023/10/31 06:07:23;;;;;;;6.07;5.33;;;13.20;99.90;;;;;;8329689;28;20189;-68
2023/10/31 06:11:25;;;;;;;8.40;5.83;;;13.20;99.90;;;;;;8329240;28;20240;-67
2023/10/31 06:15:25;;;;;;;6.13;5.53;;;13.20;99.90;;;;;;8352118;28;20193;-68
2023/10/31 06:19:26;;;;;;;5.70;5.20;;;13.30;99.90;;;;;;8328218;28;20194;-65
2023/10/31 06:23:27;;;;;;;5.97;5.07;;;13.30;99.90;;;;;;8337244;28;20230;-70
2023/10/31 06:27:28;;;;;;;5.13;4.63;;;13.30;99.90;;;;;;8332223;28;20189;-66
2023/10/31 06:31:29;;;;;;;4.70;4.30;;;13.20;99.90;;;;;;8335130;28;20264;-69
2023/10/31 06:35:29;;;;;;;4.83;4.43;;;13.20;99.90;;;;;;8337406;28;20188;-69
2023/10/31 06:39:31;;;;;;;4.77;4.10;;;13.20;99.90;;;;;;8335267;28;20178;-69
2023/10/31 06:43:32;;;;;;;4.40;4.00;;;13.20;99.90;;;;;;8337645;28;20210;-67
2023/10/31 06:47:33;;;;;;;4.37;3.70;;;13.20;99.90;;;;;;8334043;28;20197;-69
2023/10/31 06:51:34;;;;;;;3.60;3.30;;;13.20;99.90;;;;;;8334342;28;20265;-66
2023/10/31 06:55:35;;;;;;;3.43;3.13;;;13.10;99.90;;;;;;8344022;28;20229;-70
2023/10/31 06:59:35;;;;;;;3.53;3.17;;;13.10;99.90;;;;;;8333281;28;20206;-69
2023/10/31 07:03:36;;;;;;;5.33;3.17;;;13.10;99.90;;;;;;8336529;28;20210;-67
2023/10/31 07:07:37;;;;;;;3.30;3.00;;;13.10;99.90;;;;;;8330471;28;20186;-69
2023/10/31 07:11:38;;;;;;;3.03;2.40;;;13.10;99.90;;;;;;8334443;28;20182;-69
2023/10/31 07:15:40;;;;;;;3.70;2.20;;;13.20;99.90;;;;;;8361104;28;20182;-70
2023/10/31 07:19:41;;;;;;;2.93;2.63;;;13.20;99.90;;;;;;8334559;28;20273;-71
2023/10/31 07:23:44;;;;;;;2.43;2.23;;;13.20;99.90;;;;;;8330505;28;20205;-69
2023/10/31 07:27:44;;;;;;;3.30;2.10;;;13.20;99.90;;;;;;8331599;28;20392;-68
2023/10/31 07:31:45;;;;;;;3.23;2.00;;;13.10;99.90;;;;;;8331509;28;20209;-70
2023/10/31 07:35:46;;;;;;;2.73;2.13;;;13.10;99.90;;;;;;8331628;28;20585;-70
2023/10/31 07:39:47;;;;;;;2.40;2.10;;;13.10;99.90;;;;;;8337513;28;20794;-68
2023/10/31 07:43:53;;;;;;;1.70;1.50;;;13.10;99.90;;;;;;8330364;28;20285;-64
2023/10/31 07:47:54;;;;;;;4.40;1.93;;;13.10;99.90;;;;;;8328555;28;20178;-66
2023/10/31 07:51:56;;;;;;;2.03;1.53;;;13.20;99.90;;;;;;8328086;28;20181;-64
2023/10/31 07:55:59;;;;;;;1.90;1.80;;;13.40;99.90;;;;;;8364213;28;20198;-69
2023/10/31 07:59:59;;;;;;;2.40;1.43;;;13.50;99.90;;;;;;8329734;28;20265;-68
2023/10/31 08:04:01;;;;;;;1.60;1.43;;;13.60;99.90;;;;;;8327220;28;20217;-68
2023/10/31 08:08:02;;;;;;;1.83;1.60;;;13.60;99.90;;;;;;8329673;28;20187;-70
2023/10/31 08:12:03;;;;;;;3.77;1.80;;;13.60;99.90;;;;;;8332028;28;20216;-65
2023/10/31 08:16:06;;;;;;;3.50;1.40;;;13.50;99.90;;;;;;8336262;28;20197;-68
2023/10/31 08:20:08;;;;;;;2.40;1.23;;;13.80;99.90;;;;;;8328344;28;20209;-67
2023/10/31 08:24:10;;;;;;;1.20;1.10;;;13.90;99.90;;;;;;8329328;28;20230;-67
2023/10/31 08:28:12;;;;;;;1.17;0.90;;;14.00;99.90;;;;;;8330307;28;20175;-68
2023/10/31 08:32:12;;;;;;;0.63;0.63;;;14.00;99.90;;;;;;8328499;28;20183;-68
2023/10/31 08:36:13;;;;;;;1.53;0.80;;;14.10;99.90;;;;;;8326561;28;20283;-67
2023/10/31 08:40:14;;;;;;;0.70;0.60;;;13.90;99.90;;;;;;8332026;28;20599;-69
2023/10/31 08:44:15;;;;;;;1.67;0.70;;;14.00;99.90;;;;;;8331488;28;20213;-65
2023/10/31 08:48:15;;;;;;;1.00;0.80;;;14.20;99.90;;;;;;8333068;28;20193;-66
2023/10/31 08:52:17;;;;;;;1.43;0.50;;;14.40;99.90;;;;;;8327607;28;20213;-68
2023/10/31 08:56:21;;;;;;;0.70;0.40;;;14.70;99.90;;;;;;8326522;28;20201;-68
2023/10/31 09:00:22;;;;;;;0.60;0.57;;;14.90;99.90;;;;;;8326744;28;20202;-66
2023/10/31 09:04:23;;;;;;;0.50;0.40;;;15.00;99.90;;;;;;8326329;28;20365;-66
2023/10/31 09:08:24;;;;;;;2.60;0.50;;;15.20;99.90;;;;;;8358904;28;20482;-67
2023/10/31 09:12:27;;;;;;;0.57;0.43;;;15.30;58.20;;;;;;8329836;28;20490;-69
2023/10/31 09:16:28;;;;;;;2.57;0.50;;;15.40;5.40;;;;;;8332656;28;20193;-68
2023/10/31 09:20:29;;;;;;;0.63;0.47;;;15.20;1.00;;;;;;8341731;28;20178;-68
2023/10/31 09:24:30;;;;;;;1.47;0.60;;;14.90;1.00;;;;;;8326796;28;20205;-67
2023/10/31 09:28:31;;;;;;;1.13;0.33;;;14.90;1.00;;;;;;8332165;28;20205;-66
2023/10/31 09:32:32;;;;;;;0.87;0.30;;;14.80;1.00;;;;;;8335496;28;20176;-67
2023/10/31 09:36:34;;;;;;;0.70;0.43;;;14.80;1.00;;;;;;8331837;28;20197;-67
2023/10/31 09:40:38;;;;;;;0.97;0.30;;;14.70;1.00;;;;;;8326068;28;20276;-67
2023/10/31 09:44:39;;;;;;;0.50;0.37;;;14.70;1.00;;;;;;8330874;28;20210;-68
2023/10/31 09:48:41;;;;;;;0.60;0.30;;;14.70;1.00;;;;;;8326807;28;20268;-68
2023/10/31 09:52:44;;;;;;;0.60;0.47;;;14.70;1.00;;;;;;8355575;28;20194;-66
2023/10/31 09:56:46;;;;;;;0.60;0.40;;;14.60;1.00;;;;;;8325126;28;20257;-69
2023/10/31 10:00:47;;;;;;;0.60;0.20;;;14.60;1.00;;;;;;8328883;28;20278;-69
2023/10/31 10:04:51;;;;;;;2.13;0.50;;;14.70;1.00;;;;;;8327645;28;20205;-66
2023/10/31 10:08:52;;;;;;;1.40;0.30;;;14.60;1.00;;;;;;8326754;28;20195;-64
2023/10/31 10:12:53;;;;;;;2.20;0.60;;;14.60;1.00;;;;;;8329078;28;20177;-65
2023/10/31 10:16:55;;;;;;;0.70;0.50;;;14.70;1.00;;;;;;8326947;28;20190;-65
2023/10/31 10:21:01;;;;;;;1.90;0.60;;;14.70;1.00;;;;;;8356728;28;20182;-64
2023/10/31 10:25:03;;;;;;;0.50;0.27;;;14.80;1.00;;;;;;8325471;28;20210;-65
2023/10/31 10:29:05;;;;;;;1.33;0.40;;;15.10;1.00;;;;;;8326254;28;20201;-65
2023/10/31 10:33:07;;;;;;;0.40;0.30;;;15.00;1.00;;;;;;8329487;28;20190;-65
2023/10/31 10:37:08;;;;;;;1.40;0.57;;;15.00;1.00;;;;;;8327200;28;20191;-65
2023/10/31 10:41:11;;;;;;;2.67;0.30;;;15.00;1.00;;;;;;8326214;28;20174;-66
2023/10/31 10:45:15;;;;;;;0.90;0.47;;;15.00;1.00;;;;;;8342734;28;20218;-66
2023/10/31 10:49:19;;;;;;;0.40;0.37;;;14.90;1.00;;;;;;8325139;28;20182;-65
2023/10/31 10:53:25;;;;;;;0.60;0.40;;;15.00;1.00;;;;;;8325217;28;20182;-64
2023/10/31 10:57:50;;;;;;;0.63;0.30;;;15.30;1.00;;;;;;8329807;28;20186;-64
2023/10/31 11:01:52;;;;;;;0.77;0.40;;;15.60;1.00;;;;;;8326425;28;20238;-64
2023/10/31 11:05:55;;;;;;;0.80;0.50;;;15.90;1.00;;;;;;8331258;28;20209;-61
2023/10/31 11:09:57;;;;;;;0.47;0.30;;;15.80;1.00;;;;;;8330891;28;20174;-63
2023/10/31 11:14:01;;;;;;;0.50;0.20;;;15.70;1.00;;;;;;8362560;28;20179;-64
2023/10/31 11:18:03;;;;;;;0.60;0.30;;;15.50;1.00;;;;;;8363896;28;20769;-65
2023/10/31 11:22:06;;;;;;;1.70;0.30;;;15.30;1.00;;;;;;8329432;28;20182;-64
2023/10/31 11:26:08;;;;;;;1.17;0.40;;;15.10;1.00;;;;;;8336736;28;20259;-66
2023/10/31 11:30:32;;;;;;;0.40;0.23;;;15.20;1.00;;;;;;8328727;28;20212;-63
2023/10/31 11:34:36;;;;;;;0.60;0.30;;;15.20;1.00;;;;;;8333019;28;20220;-65
2023/10/31 11:38:38;;;;;;;0.90;0.40;;;15.50;1.00;;;;;;8363070;28;20186;-64
2023/10/31 11:42:41;;;;;;;0.40;0.30;;;15.70;1.00;;;;;;8329964;28;20190;-64
2023/10/31 11:46:42;;;;;;;2.33;0.23;;;15.50;1.00;;;;;;8362574;28;20232;-65
2023/10/31 11:50:43;;;;;;;1.03;0.20;;;15.00;1.00;;;;;;8339522;28;20201;-63
2023/10/31 11:54:44;;;;;;;0.63;0.20;;;14.80;1.00;;;;;;8333031;28;20195;-65
2023/10/31 11:58:55;;;;;;;3.27;0.30;;;15.00;1.00;;;;;;8332817;28;20279;-66
2023/10/31 12:03:02;;;;;;;0.37;0.27;;;14.80;1.00;;;;;;8327605;28;20198;-65
2023/10/31 12:07:03;;;;;;;0.80;0.30;;;14.80;1.00;;;;;;8327489;28;20209;-65
2023/10/31 12:11:12;;;;;;;3.10;0.10;;;14.70;1.00;;;;;;8324388;28;20200;-65
2023/10/31 12:15:13;;;;;;;0.40;0.20;;;14.40;1.00;;;;;;8345818;28;20178;-66
2023/10/31 12:19:14;;;;;;;2.87;0.30;;;14.20;1.00;;;;;;8330364;28;20269;-65
2023/10/31 12:23:16;;;;;;;0.43;0.20;;;14.20;1.00;;;;;;8333963;28;20434;-64
2023/10/31 12:27:16;;;;;;;1.03;0.30;;;14.20;1.00;;;;;;8331234;28;20181;-64
2023/10/31 12:31:17;;;;;;;1.70;0.10;;;14.20;1.00;;;;;;8330547;28;20204;-64
2023/10/31 12:35:21;;;;;;;0.87;0.30;;;14.40;1.00;;;;;;8361068;28;20178;-64
2023/10/31 12:39:26;;;;;;;1.43;0.23;;;14.40;1.00;;;;;;8329054;28;20175;-64
2023/10/31 12:43:29;;;;;;;3.13;0.30;;;14.60;1.00;;;;;;8329533;28;20220;-66
2023/10/31 12:47:30;;;;;;;1.30;0.30;;;14.70;1.00;;;;;;8328713;28;20178;-66
2023/10/31 12:51:31;;;;;;;0.93;0.37;;;14.60;1.00;;;;;;8324927;28;20216;-68
2023/10/31 12:55:41;;;;;;;0.40;0.20;;;14.60;1.00;;;;;;8324566;28;20221;-67
2023/10/31 12:59:41;;;;;;;0.40;0.20;;;14.50;1.00;;;;;;8328729;28;20300;-65
2023/10/31 13:03:50;;;;;;;0.47;0.30;;;14.40;1.00;;;;;;8324877;28;20349;-67
2023/10/31 13:07:53;;;;;;;0.30;0.13;;;14.30;1.00;;;;;;8343209;28;20178;-66
2023/10/31 13:11:56;;;;;;;2.13;0.40;;;14.20;1.00;;;;;;8324323;28;20190;-67
2023/10/31 13:15:57;;;;;;;0.70;0.37;;;14.20;1.00;;;;;;8332753;28;20236;-66
2023/10/31 13:19:58;;;;;;;0.90;0.30;;;14.10;1.00;;;;;;8327823;28;20300;-68
2023/10/31 13:23:59;;;;;;;0.40;0.20;;;14.10;1.00;;;;;;8356777;28;20249;-68
2023/10/31 13:28:00;;;;;;;0.47;0.20;;;14.10;1.00;;;;;;8328280;28;20182;-66
2023/10/31 13:32:01;;;;;;;0.47;0.30;;;14.00;1.00;;;;;;8337725;28;20181;-64
2023/10/31 13:36:01;;;;;;;1.27;0.40;;;14.00;1.00;;;;;;8325696;28;20644;-67
2023/10/31 13:40:03;;;;;;;0.70;0.30;;;13.90;1.00;;;;;;8327900;28;20190;-67
2023/10/31 13:44:04;;;;;;;1.07;0.37;;;13.80;1.00;;;;;;8357352;28;20218;-66
2023/10/31 13:48:05;;;;;;;0.60;0.30;;;13.70;1.00;;;;;;8328084;28;20229;-65
2023/10/31 13:52:06;;;;;;;1.07;0.30;;;13.60;1.00;;;;;;8323170;28;20487;-64
2023/10/31 13:56:08;;;;;;;2.50;0.40;;;13.60;1.00;;;;;;8324715;28;20233;-64
2023/10/31 14:00:10;;;;;;;0.60;0.30;;;13.50;1.00;;;;;;8324129;28;20220;-65
2023/10/31 14:04:13;;;;;;;0.87;0.40;;;13.40;1.00;;;;;;8353804;28;20224;-67
2023/10/31 14:08:13;;;;;;;0.50;0.30;;;13.40;1.00;;;;;;8332055;28;20181;-64
2023/10/31 14:12:14;;;;;;;1.17;0.53;;;13.40;1.00;;;;;;8326108;28;20225;-66
2023/10/31 14:16:15;;;;;;;0.47;0.20;;;13.30;1.00;;;;;;8324639;28;20303;-65
2023/10/31 14:20:16;;;;;;;1.67;0.40;;;13.20;1.00;;;;;;8328079;28;20197;-64
2023/10/31 14:24:17;;;;;;;0.83;0.20;;;13.20;1.00;;;;;;8331448;28;20229;-65
2023/10/31 14:28:18;;;;;;;0.50;0.20;;;13.20;1.00;;;;;;8335077;28;20209;-65
2023/10/31 14:32:19;;;;;;;2.17;0.47;;;13.20;1.00;;;;;;8327011;28;20175;-65
2023/10/31 14:36:20;;;;;;;0.30;0.20;;;13.20;1.00;;;;;;8324452;28;20201;-64
2023/10/31 14:40:21;;;;;;;0.60;0.30;;;13.20;1.00;;;;;;8326075;28;20205;-63
2023/10/31 14:44:21;;;;;;;0.60;0.20;;;13.10;1.00;;;;;;8334021;28;20204;-62
2023/10/31 14:48:23;;;;;;;0.50;0.20;;;13.10;1.00;;;;;;8330208;28;20202;-64
2023/10/31 14:52:24;;;;;;;0.60;0.20;;;13.00;1.00;;;;;;8362526;28;20198;-65
2023/10/31 14:56:29;;;;;;;0.53;0.30;;;13.00;1.00;;;;;;8330302;28;20198;-64
2023/10/31 15:00:30;;;;;;;1.60;0.30;;;12.90;1.00;;;;;;8328812;28;20277;-65
2023/10/31 15:04:31;;;;;;;1.10;0.20;;;12.90;1.00;;;;;;8329462;28;20259;-65
2023/10/31 15:08:31;;;;;;;0.40;0.20;;;12.90;1.00;;;;;;8333366;28;20212;-63
2023/10/31 15:12:33;;;;;;;0.53;0.20;;;12.80;1.00;;;;;;8339670;28;20383;-63
2023/10/31 15:16:33;;;;;;;0.80;0.50;;;12.70;1.00;;;;;;8329218;28;20228;-63
2023/10/31 15:20:34;;;;;;;2.20;0.47;;;12.60;1.00;;;;;;8347324;28;20190;-65
2023/10/31 15:24:35;;;;;;;0.53;0.40;;;12.60;1.00;;;;;;8332161;28;20292;-64
2023/10/31 15:28:37;;;;;;;1.53;0.50;;;12.60;1.00;;;;;;8332196;28;20256;-64
2023/10/31 15:32:39;;;;;;;2.13;0.50;;;12.50;1.00;;;;;;8362750;28;20170;-63
2023/10/31 15:36:40;;;;;;;1.27;0.60;;;12.50;1.00;;;;;;8333722;28;20178;-63
2023/10/31 15:40:41;;;;;;;1.07;0.50;;;12.50;1.00;;;;;;8329342;28;20189;-64
2023/10/31 15:44:42;;;;;;;1.50;0.80;;;12.50;1.00;;;;;;8329493;28;20205;-65
2023/10/31 15:48:44;;;;;;;0.70;0.60;;;12.50;1.00;;;;;;8331193;28;20185;-63
2023/10/31 15:52:46;;;;;;;0.50;0.30;;;12.50;1.00;;;;;;8327192;28;20265;-62
2023/10/31 15:56:47;;;;;;;0.90;0.50;;;12.60;1.00;;;;;;8331901;28;20296;-63
2023/10/31 16:00:48;;;;;;;1.13;0.50;;;12.50;1.00;;;;;;8360907;28;20237;-63
2023/10/31 16:04:49;;;;;;;0.50;0.30;;;12.40;1.00;;;;;;8329179;28;20218;-61
2023/10/31 16:08:50;;;;;;;0.50;0.23;;;12.30;1.00;;;;;;8328863;28;20181;-62
2023/10/31 16:12:51;;;;;;;0.50;0.27;;;12.20;1.00;;;;;;8330172;28;20497;-63
2023/10/31 16:16:51;;;;;;;1.40;0.40;;;12.20;1.00;;;;;;8329098;28;20483;-62
2023/10/31 16:20:53;;;;;;;1.07;0.40;;;12.00;1.00;;;;;;8344393;28;20285;-61
2023/10/31 16:24:54;;;;;;;0.40;0.20;;;12.00;1.00;;;;;;8329947;28;20213;-62
2023/10/31 16:28:54;;;;;;;1.03;0.40;;;11.80;1.00;;;;;;8325271;28;20185;-63
2023/10/31 16:32:55;;;;;;;3.20;0.63;;;11.80;1.00;;;;;;8328474;28;20205;-64
2023/10/31 16:36:58;;;;;;;0.40;0.30;;;11.70;1.00;;;;;;8330868;28;20198;-63
2023/10/31 16:41:03;;;;;;;1.57;0.40;;;11.70;1.00;;;;;;8332214;28;20217;-63
2023/10/31 16:45:05;;;;;;;0.60;0.30;;;11.60;1.00;;;;;;8327483;28;20213;-62
2023/10/31 16:49:07;;;;;;;0.40;0.30;;;11.60;1.00;;;;;;8329734;28;20507;-62
2023/10/31 16:53:07;;;;;;;0.70;0.40;;;11.60;1.00;;;;;;8329944;28;20294;-63
2023/10/31 16:57:10;;;;;;;0.87;0.20;;;11.70;1.00;;;;;;8343348;28;20224;-64
2023/10/31 17:01:11;;;;;;;0.80;0.30;;;11.60;1.00;;;;;;8327062;28;20480;-64
2023/10/31 17:05:13;;;;;;;0.97;0.40;;;11.60;1.00;;;;;;8326618;28;20222;-63
2023/10/31 17:09:15;;;;;;;0.40;0.33;;;11.70;1.00;;;;;;8330581;28;20244;-62
2023/10/31 17:13:16;;;;;;;0.80;0.50;;;11.70;1.00;;;;;;8326284;28;20188;-62
2023/10/31 17:17:17;;;;;;;0.47;0.40;;;11.70;1.00;;;;;;8325516;28;20193;-62
2023/10/31 17:21:18;;;;;;;0.50;0.40;;;11.70;1.00;;;;;;8355963;28;20190;-63
2023/10/31 17:25:18;;;;;;;1.83;0.50;;;11.70;1.00;;;;;;8326025;28;20217;-61
2023/10/31 17:29:19;;;;;;;1.67;0.50;;;11.80;1.00;;;;;;8333515;28;20201;-64
2023/10/31 17:33:23;;;;;;;2.10;0.60;;;11.80;1.00;;;;;;8334727;28;20186;-63
2023/10/31 17:37:25;;;;;;;1.40;0.50;;;11.80;1.00;;;;;;8327814;28;20186;-61
2023/10/31 17:41:26;;;;;;;0.50;0.40;;;11.80;1.00;;;;;;8325783;28;20188;-63
2023/10/31 17:45:26;;;;;;;1.30;0.50;;;11.80;1.00;;;;;;8328165;28;20237;-63
2023/10/31 17:49:27;;;;;;;1.47;0.90;;;11.80;1.00;;;;;;8327334;28;20265;-63
2023/10/31 17:53:28;;;;;;;0.67;0.50;;;11.80;1.00;;;;;;8323808;28;20186;-63
2023/10/31 17:57:29;;;;;;;1.00;0.70;;;11.80;1.00;;;;;;8327739;28;20202;-63
2023/10/31 18:01:30;;;;;;;3.57;0.50;;;11.80;1.00;;;;;;8324482;28;20563;-62
2023/10/31 18:05:32;;;;;;;1.27;0.57;;;11.80;1.00;;;;;;8318806;28;20210;-63
2023/10/31 18:09:33;;;;;;;1.37;0.53;;;11.80;1.00;;;;;;8326885;28;20186;-62
2023/10/31 18:13:34;;;;;;;6.93;0.90;;;11.80;1.00;;;;;;8323888;28;20544;-62
2023/10/31 18:17:35;;;;;;;1.00;0.90;;;11.80;1.00;;;;;;8328386;28;20223;-63
2023/10/31 18:21:35;;;;;;;2.30;0.70;;;11.70;1.00;;;;;;8333649;28;20770;-61
2023/10/31 18:25:36;;;;;;;3.07;0.50;;;11.70;1.00;;;;;;8331964;28;20218;-61
2023/10/31 18:29:38;;;;;;;0.80;0.40;;;11.80;1.00;;;;;;8333297;28;20185;-61
2023/10/31 18:33:41;;;;;;;1.07;0.70;;;11.80;1.00;;;;;;8329312;28;20266;-68
2023/10/31 18:37:42;;;;;;;0.90;0.50;;;11.80;1.00;;;;;;8335977;28;20183;-65
2023/10/31 18:41:42;;;;;;;1.10;0.50;;;11.80;1.00;;;;;;8331243;28;20193;-64
2023/10/31 18:45:44;;;;;;;0.97;0.60;;;11.80;1.00;;;;;;8336913;28;20202;-67
2023/10/31 18:49:45;;;;;;;1.83;0.80;;;11.80;1.00;;;;;;8362962;28;20193;-66
2023/10/31 18:53:47;;;;;;;0.87;0.60;;;11.80;1.00;;;;;;8363991;28;20206;-67
2023/10/31 18:57:49;;;;;;;0.80;0.70;;;11.80;1.00;;;;;;8337072;28;20486;-66
2023/10/31 19:01:54;;;;;;;1.47;0.93;;;11.80;1.00;;;;;;8341686;28;20810;-65
2023/10/31 19:05:55;;;;;;;0.93;0.60;;;11.80;1.00;;;;;;8326086;28;20467;-68
2023/10/31 19:09:56;;;;;;;1.33;0.70;;;11.80;1.00;;;;;;8333897;28;20190;-67
2023/10/31 19:13:56;;;;;;;1.17;0.80;;;11.80;1.00;;;;;;8357147;28;20223;-67
2023/10/31 19:18:00;;;;;;;1.00;0.83;;;11.80;1.00;;;;;;8336564;28;20190;-67
2023/10/31 19:22:02;;;;;;;1.63;0.90;;;11.70;1.00;;;;;;8370025;28;20268;-67
2023/10/31 19:26:03;;;;;;;1.53;0.93;;;11.70;1.00;;;;;;8339880;28;20210;-66
2023/10/31 19:30:05;;;;;;;1.00;0.70;;;11.70;1.00;;;;;;8336473;28;20190;-69
2023/10/31 19:34:05;;;;;;;3.97;1.10;;;11.70;1.00;;;;;;8332857;28;20189;-67
2023/10/31 19:38:06;;;;;;;1.20;0.87;;;11.70;1.00;;;;;;8361791;28;20192;-68
2023/10/31 19:42:07;;;;;;;1.10;0.97;;;11.70;1.00;;;;;;8335354;28;20206;-68
2023/10/31 19:46:08;;;;;;;1.30;1.00;;;11.70;1.00;;;;;;8330116;28;20205;-67
2023/10/31 19:50:11;;;;;;;1.07;0.70;;;11.70;1.00;;;;;;8334314;28;20189;-67
2023/10/31 19:54:12;;;;;;;2.67;1.00;;;11.70;1.00;;;;;;8330825;28;20545;-69
2023/10/31 19:58:13;;;;;;;1.10;0.80;;;11.70;1.00;;;;;;8332739;28;20206;-67
2023/10/31 20:02:15;;;;;;;1.53;0.83;;;11.70;1.00;;;;;;8332495;28;20207;-67
2023/10/31 20:06:16;;;;;;;2.07;0.80;;;11.70;1.00;;;;;;8329880;28;20215;-66
2023/10/31 20:10:17;;;;;;;1.20;0.90;;;11.70;1.00;;;;;;8331083;28;20304;-67
2023/10/31 20:14:18;;;;;;;1.60;0.80;;;11.70;1.00;;;;;;8333753;28;20615;-68
2023/10/31 20:18:25;;;;;;;1.33;0.93;;;11.70;1.00;;;;;;8335250;28;20190;-69
2023/10/31 20:22:26;;;;;;;1.40;0.90;;;11.60;1.00;;;;;;8330555;28;20182;-66
2023/10/31 20:26:28;;;;;;;1.67;1.10;;;11.60;1.00;;;;;;8324545;28;20221;-66
2023/10/31 20:30:31;;;;;;;1.63;1.10;;;11.60;1.00;;;;;;8331315;28;20177;-69
2023/10/31 20:34:33;;;;;;;2.60;1.33;;;11.60;1.00;;;;;;8327393;28;20285;-66
2023/10/31 20:38:34;;;;;;;3.27;1.07;;;11.50;1.00;;;;;;8327928;28;20256;-67
2023/10/31 20:42:35;;;;;;;3.83;0.97;;;11.50;1.00;;;;;;8330391;28;20186;-67
2023/10/31 20:46:36;;;;;;;1.00;0.87;;;11.60;1.00;;;;;;8331687;28;20305;-63
2023/10/31 20:50:37;;;;;;;2.07;1.30;;;11.50;1.00;;;;;;8327663;28;20190;-62
2023/10/31 20:54:38;;;;;;;1.57;1.10;;;11.50;1.00;;;;;;8328995;28;20197;-63
2023/10/31 20:58:39;;;;;;;1.20;0.87;;;11.50;1.00;;;;;;8328265;28;20332;-61
2023/10/31 21:02:41;;;;;;;2.67;0.90;;;11.50;1.00;;;;;;8332595;28;20464;-64
2023/10/31 21:06:41;;;;;;;3.43;0.87;;;11.60;1.00;;;;;;8324301;28;20215;-62